Terminal Aerodrome Forecast
Issued by NWS Tampa Bay Area, FL

Home | Current Version | Previous Version | Text Only | Print | Product List | Glossary On
Versions: 1 2 3 4 5 6 7 8 9 10 11 12 13 14
000
FTUS42 KTBW 281134
TAFFMY
TAF
KFMY 281134Z 2812/2912 VRB06KT P6SM VCSH SCT010 BKN030 OVC080
     FM281400 15009KT P6SM VCTS SCT010CB BKN030 OVC080
     FM281800 22010KT 6SM -RA VCTS SCT010CB BKN035 OVC080
     FM290000 VRB06KT P6SM VCSH FEW007 SCT015 BKN025
     FM290600 19007KT P6SM SCT007 BKN020=

USA.gov is the U.S. government's official web portal to all federal, state and local government web resources and services.